Aérodrome :







RETROUVEZ-NOUS SUR...

 
LOGIN :

S'inscrire | Disclaimer

   EN    FR    IT 

 









Légende :    VFR   VFR Marginal   IFR   IFR Intensif   IFR Très Intensif
Visi : 
Plafond : 
>= 8 km
>= 3000ft
5 à 8 km
1000 à 3000 ft
1500m à 5 km
500 à 1000 ft
800 à 1500m
200 à 500 ft
< 800m
< 200 ft
Symboles :   Orages  Brouillard  Fortes neiges  Fortes précipitations  Vent > 20 kt






- Altitude de l'aérodrome : 110 ft
- Code IATA : YFB


CYFB - Iqaluit

DERNIER METAR :
  • 142000Z 00000KT 15SM FEW036 FEW048 M19/M24 A2997 RMK SC1SC1 SC TR SLP153

METARs EXPIRÉS :
  • 141900Z 00000KT 30SM FEW012 FEW036 SCT048 M18/M24 A2995 RMK SF1SC1SC3 SF TR SC TR SLP147
  • 141800Z 22005KT 30SM FEW036 SCT048 M15/M22 A2994 RMK SC1SC3 SC TR SLP143

TAF TAF CYFB
Valide du 14 à 18h jusqu'au 15 à 18h UTC


141738Z 1418/1518 21005KT P6SM SCT020 BKN050
TEMPO 1418/1506 P6SM -SN BKN020
FM150600 01005KT P6SM SCT030 RMK NXT FCST BY 150000Z



MET'MAP, la Météo Aéronautique d'un coup d'oeil ! - Copyright ORBIFLY Décembre 2007 - Disclaimer

ORBIFLY MET'MAP TEAM :

Programmation & Développement : Alexandra Zaïnal
Sur une idée originale de : Baudouin d'Aumeries
Assistance à la programmation : Marc-Olivier Méhu
Soutien technique & logistique : Manuel Goepfert

Contact : metmap@orbifly.com




SOURCES & CREDITS :

   NOAA